createdAt,value
2023-01-27T00:00:16.084Z,0.10
2023-01-27T00:02:43.876Z,0.10
2023-01-27T00:05:12.513Z,0.20
2023-01-27T00:07:39.504Z,0.20
2023-01-27T00:10:07.129Z,0.20
2023-01-27T00:12:52.389Z,0.30
2023-01-27T00:15:19.188Z,0.30
2023-01-27T00:17:45.871Z,0.30
2023-01-27T00:20:12.935Z,0.40
2023-01-27T00:22:58.386Z,0.40
2023-01-27T00:25:25.052Z,0.40
2023-01-27T00:27:51.704Z,0.40
2023-01-27T00:30:18.371Z,0.40
2023-01-27T00:33:04.062Z,0.40
2023-01-27T00:35:30.737Z,0.40
2023-01-27T00:37:57.370Z,0.40
2023-01-27T00:40:24.034Z,0.40
2023-01-27T00:42:50.696Z,0.40
2023-01-27T00:45:35.997Z,0.40
2023-01-27T00:48:02.647Z,0.40
2023-01-27T00:50:29.383Z,0.40
2023-01-27T00:52:57.839Z,0.40
2023-01-27T00:55:25.868Z,0.40
2023-01-27T00:57:52.628Z,0.40
2023-01-27T01:00:19.504Z,0.40
2023-01-27T01:02:46.187Z,0.40
2023-01-27T01:05:12.936Z,0.40
2023-01-27T01:07:39.579Z,0.40
2023-01-27T01:10:08.611Z,0.50
2023-01-27T01:12:35.302Z,0.50
2023-01-27T01:15:02.085Z,0.50
2023-01-27T01:17:28.811Z,0.50
2023-01-27T01:19:57.425Z,0.60
2023-01-27T01:22:25.677Z,0.50
2023-01-27T01:24:52.362Z,0.60
2023-01-27T01:27:19.110Z,0.50
2023-01-27T01:29:45.855Z,0.50
2023-01-27T01:32:12.610Z,0.50
2023-01-27T01:34:39.320Z,0.60
2023-01-27T01:37:06.005Z,0.50
2023-01-27T01:39:32.831Z,0.60
2023-01-27T01:42:00.313Z,0.50
2023-01-27T01:44:32.715Z,0.50
2023-01-27T01:47:00.115Z,0.60
2023-01-27T01:49:35.141Z,0.60
2023-01-27T01:52:12.785Z,0.60
2023-01-27T01:54:47.998Z,0.60
2023-01-27T01:57:23.196Z,0.60
2023-01-27T01:59:59.891Z,0.70
2023-01-27T02:02:27.171Z,0.60
2023-01-27T02:05:07.959Z,0.60
2023-01-27T02:07:46.516Z,0.60
2023-01-27T02:10:13.675Z,0.60
2023-01-27T02:12:40.657Z,0.70
2023-01-27T02:15:08.651Z,0.70
2023-01-27T02:17:36.296Z,0.70
2023-01-27T02:20:12.228Z,0.70
2023-01-27T02:22:49.789Z,0.70
2023-01-27T02:25:34.959Z,0.70
2023-01-27T02:28:03.899Z,0.70
2023-01-27T02:30:30.658Z,0.70
2023-01-27T02:32:57.519Z,0.70
2023-01-27T02:35:31.645Z,0.70
2023-01-27T02:37:59.221Z,0.60
2023-01-27T02:40:28.440Z,0.60
2023-01-27T02:42:57.051Z,0.70
2023-01-27T02:45:24.266Z,0.60
2023-01-27T02:47:50.988Z,0.70
2023-01-27T02:50:18.123Z,0.70
2023-01-27T02:52:44.790Z,0.70
2023-01-27T02:55:12.413Z,0.70
2023-01-27T02:57:39.897Z,0.70
2023-01-27T03:03:26.517Z,0.70
2023-01-27T03:05:53.254Z,0.70
2023-01-27T03:08:20.440Z,0.70
2023-01-27T03:10:52.304Z,0.70
2023-01-27T03:13:25.187Z,0.70
2023-01-27T03:16:13.538Z,0.70
2023-01-27T03:18:41.375Z,0.70
2023-01-27T03:21:08.695Z,0.70
2023-01-27T03:23:35.495Z,0.70
2023-01-27T03:26:07.442Z,0.70
2023-01-27T03:28:36.912Z,0.70
2023-01-27T03:31:10.114Z,0.70
2023-01-27T03:33:48.697Z,0.70
2023-01-27T03:36:49.766Z,0.60
2023-01-27T03:39:35.039Z,0.60
2023-01-27T03:42:21.240Z,0.50
2023-01-27T03:45:08.178Z,0.60
2023-01-27T03:47:34.951Z,0.60
2023-01-27T03:50:01.640Z,0.70
2023-01-27T03:52:28.392Z,0.70
2023-01-27T03:54:55.096Z,0.70
2023-01-27T03:57:21.791Z,0.60
2023-01-27T03:59:48.448Z,0.60
2023-01-27T04:02:33.887Z,0.70
2023-01-27T04:05:19.095Z,0.70
2023-01-27T04:07:45.753Z,0.70
2023-01-27T04:10:12.466Z,0.70
2023-01-27T04:12:39.155Z,0.70
2023-01-27T04:15:06.568Z,0.70
2023-01-27T04:17:38.766Z,0.80
2023-01-27T04:20:06.091Z,0.80
2023-01-27T04:22:32.777Z,0.90
2023-01-27T04:24:59.479Z,0.80
2023-01-27T04:27:27.225Z,0.70
2023-01-27T04:29:54.263Z,0.70
2023-01-27T04:32:20.962Z,0.70
2023-01-27T04:34:47.614Z,0.70
2023-01-27T04:37:14.414Z,0.80
2023-01-27T04:39:41.823Z,0.80
2023-01-27T04:42:08.624Z,0.90
2023-01-27T04:44:35.282Z,0.90
2023-01-27T04:47:01.979Z,0.90
2023-01-27T04:49:28.647Z,1.00
2023-01-27T04:51:55.828Z,0.90
2023-01-27T04:54:22.646Z,1.00
2023-01-27T04:57:01.445Z,1.00
2023-01-27T04:59:28.306Z,1.00
2023-01-27T05:01:55.300Z,1.00
2023-01-27T05:04:22.007Z,1.00
2023-01-27T05:06:48.845Z,1.00
2023-01-27T05:09:15.681Z,1.00
2023-01-27T05:11:42.436Z,0.90
2023-01-27T05:14:09.114Z,0.70
2023-01-27T05:16:38.131Z,0.80
2023-01-27T05:19:05.266Z,0.80
2023-01-27T05:21:31.955Z,0.90
2023-01-27T05:23:58.623Z,0.90
2023-01-27T05:26:27.209Z,0.90
2023-01-27T05:28:56.691Z,0.90
2023-01-27T05:31:25.643Z,0.80
2023-01-27T05:33:54.462Z,0.80
2023-01-27T05:36:23.375Z,0.70
2023-01-27T05:38:50.315Z,0.80
2023-01-27T05:41:18.613Z,0.80
2023-01-27T05:43:47.036Z,0.80
2023-01-27T05:46:16.623Z,0.90
2023-01-27T05:48:47.478Z,0.90
2023-01-27T05:51:16.203Z,1.00
2023-01-27T05:53:43.851Z,1.00
2023-01-27T05:56:13.145Z,1.00
2023-01-27T05:58:40.619Z,1.00
2023-01-27T06:01:19.557Z,1.00
2023-01-27T06:03:47.437Z,1.00
2023-01-27T06:06:16.696Z,1.00
2023-01-27T06:08:43.896Z,1.00
2023-01-27T06:11:10.593Z,1.00
2023-01-27T06:13:38.965Z,1.00
2023-01-27T06:16:11.113Z,1.00
2023-01-27T06:18:39.249Z,1.00
2023-01-27T06:21:09.690Z,1.00
2023-01-27T06:23:36.581Z,0.90
2023-01-27T06:26:09.527Z,0.90
2023-01-27T06:28:36.602Z,0.90
2023-01-27T06:31:08.546Z,0.90
2023-01-27T06:33:38.262Z,1.00
2023-01-27T06:36:08.553Z,1.00
2023-01-27T06:38:35.630Z,0.90
2023-01-27T06:41:02.383Z,0.90
2023-01-27T06:43:29.173Z,1.00
2023-01-27T06:45:57.909Z,0.90
2023-01-27T06:48:28.266Z,1.00
2023-01-27T06:50:55.942Z,1.00
2023-01-27T06:53:23.503Z,1.00
2023-01-27T06:55:57.901Z,1.00
2023-01-27T06:58:25.014Z,1.00
2023-01-27T07:00:52.563Z,1.00
2023-01-27T07:03:20.256Z,1.00
2023-01-27T07:05:47.029Z,1.10
2023-01-27T07:08:13.692Z,1.10
2023-01-27T07:10:40.575Z,1.10
2023-01-27T07:13:09.092Z,1.10
2023-01-27T07:15:36.623Z,1.20
2023-01-27T07:18:03.852Z,1.20
2023-01-27T07:20:31.751Z,1.20
2023-01-27T07:23:03.142Z,1.20
2023-01-27T07:25:33.188Z,1.30
2023-01-27T07:28:01.704Z,1.30
2023-01-27T07:30:29.548Z,1.30
2023-01-27T07:32:56.344Z,1.30
2023-01-27T07:35:23.550Z,1.30
2023-01-27T07:37:50.390Z,1.30
2023-01-27T07:40:18.303Z,1.40
2023-01-27T07:42:45.045Z,1.40
2023-01-27T07:45:11.862Z,1.50
2023-01-27T07:47:38.692Z,1.50
2023-01-27T07:50:05.855Z,1.50
2023-01-27T07:52:32.680Z,1.50
2023-01-27T07:54:59.365Z,1.60
2023-01-27T07:57:26.061Z,1.60
2023-01-27T07:59:56.608Z,1.60
2023-01-27T08:02:24.483Z,1.60
2023-01-27T08:04:53.568Z,1.60
2023-01-27T08:07:20.822Z,1.60
2023-01-27T08:09:47.522Z,1.60
2023-01-27T08:12:14.375Z,1.50
2023-01-27T08:14:41.063Z,1.50
2023-01-27T08:17:07.766Z,1.50
2023-01-27T08:19:34.504Z,1.50
2023-01-27T08:22:01.264Z,1.50
2023-01-27T08:24:28.106Z,1.50
2023-01-27T08:26:55.308Z,1.50
2023-01-27T08:29:22.199Z,1.40
2023-01-27T08:31:48.933Z,1.50
2023-01-27T08:34:16.982Z,1.50
2023-01-27T08:36:44.022Z,1.60
2023-01-27T08:39:11.742Z,1.70
2023-01-27T08:41:39.081Z,1.70
2023-01-27T08:44:06.946Z,1.70
2023-01-27T08:46:33.793Z,1.70
2023-01-27T08:49:00.592Z,1.80
2023-01-27T08:51:27.392Z,1.80
2023-01-27T08:53:54.214Z,1.80
2023-01-27T08:56:21.196Z,1.80
2023-01-27T08:58:48.554Z,1.80
2023-01-27T09:01:16.372Z,1.80
2023-01-27T09:03:43.289Z,1.80
2023-01-27T09:06:12.285Z,1.80
2023-01-27T09:08:40.240Z,1.80
2023-01-27T09:11:12.033Z,1.80
2023-01-27T09:13:38.836Z,1.90
2023-01-27T09:16:06.077Z,1.90
2023-01-27T09:18:33.246Z,1.90
2023-01-27T09:21:05.012Z,2.00
2023-01-27T09:23:32.462Z,2.00
2023-01-27T09:25:59.273Z,2.00
2023-01-27T09:28:26.009Z,2.00
2023-01-27T09:30:57.856Z,2.00
2023-01-27T09:33:26.155Z,2.00
2023-01-27T09:35:58.792Z,2.00
2023-01-27T09:38:28.496Z,2.10
2023-01-27T09:41:23.695Z,2.10
2023-01-27T09:43:59.831Z,2.10
2023-01-27T09:46:36.282Z,2.00
2023-01-27T09:49:18.868Z,2.00
2023-01-27T09:51:51.603Z,1.80
2023-01-27T09:54:33.190Z,1.80
2023-01-27T09:57:14.267Z,1.70
2023-01-27T10:00:17.145Z,1.70
2023-01-27T10:03:11.471Z,1.70
2023-01-27T10:05:53.771Z,1.80
2023-01-27T10:09:07.014Z,1.80
2023-01-27T10:11:44.419Z,1.80
2023-01-27T10:14:29.769Z,1.80
2023-01-27T10:17:11.768Z,1.90
2023-01-27T10:20:06.823Z,2.00
2023-01-27T10:23:01.107Z,2.10
2023-01-27T10:25:37.201Z,2.20
2023-01-27T10:28:13.651Z,2.20
2023-01-27T10:31:30.742Z,2.20
2023-01-27T10:34:07.152Z,2.30
2023-01-27T10:36:42.816Z,2.40
2023-01-27T10:39:50.038Z,2.20
2023-01-27T10:42:33.979Z,2.20
2023-01-27T10:45:06.272Z,2.30
2023-01-27T10:47:48.141Z,2.30
2023-01-27T10:50:27.703Z,2.40
2023-01-27T10:53:11.425Z,2.40
2023-01-27T10:55:56.316Z,2.40
2023-01-27T10:58:52.900Z,2.40
2023-01-27T11:01:31.520Z,2.40
2023-01-27T11:04:36.927Z,2.50
2023-01-27T11:07:05.522Z,2.50
2023-01-27T11:09:36.707Z,2.60
2023-01-27T11:12:11.831Z,2.60
2023-01-27T11:14:49.822Z,2.60
2023-01-27T11:17:29.955Z,2.60
2023-01-27T11:20:05.102Z,2.60
2023-01-27T11:22:54.066Z,2.60
2023-01-27T11:25:46.416Z,2.60
2023-01-27T11:28:32.424Z,2.60
2023-01-27T11:31:06.168Z,2.70
2023-01-27T11:33:58.527Z,2.70
2023-01-27T11:36:26.522Z,2.70
2023-01-27T11:38:54.432Z,2.70
2023-01-27T11:41:21.856Z,2.60
2023-01-27T11:43:48.807Z,2.70
2023-01-27T11:46:21.495Z,2.60
2023-01-27T11:48:52.263Z,2.70
2023-01-27T11:51:22.868Z,2.70
2023-01-27T11:54:03.676Z,2.70
2023-01-27T11:56:32.021Z,2.70
2023-01-27T11:59:08.378Z,2.80
2023-01-27T12:01:44.882Z,2.80
2023-01-27T12:04:19.741Z,2.80
2023-01-27T12:06:54.698Z,2.80
2023-01-27T12:09:37.913Z,2.80
2023-01-27T12:12:12.154Z,2.80
2023-01-27T12:14:39.061Z,2.80
2023-01-27T12:17:08.050Z,2.80
2023-01-27T12:19:40.140Z,2.80
2023-01-27T12:22:24.135Z,2.80
2023-01-27T12:24:55.756Z,2.90
2023-01-27T12:27:31.181Z,3.00
2023-01-27T12:30:02.420Z,2.90
2023-01-27T12:32:39.823Z,2.90
2023-01-27T12:35:17.941Z,2.90
2023-01-27T12:37:45.157Z,2.90
2023-01-27T12:40:25.292Z,3.00
2023-01-27T12:43:13.730Z,3.10
2023-01-27T12:45:43.330Z,3.10
2023-01-27T12:48:10.337Z,3.00
2023-01-27T12:50:54.266Z,3.10
2023-01-27T12:53:22.969Z,3.00
2023-01-27T12:55:57.191Z,3.10
2023-01-27T12:58:44.695Z,3.00
2023-01-27T13:01:23.009Z,3.10
2023-01-27T13:03:59.316Z,3.10
2023-01-27T13:06:37.328Z,3.20
2023-01-27T13:09:04.278Z,3.20
2023-01-27T13:11:34.810Z,3.20
2023-01-27T13:14:01.670Z,3.20
2023-01-27T13:16:30.118Z,3.10
2023-01-27T13:19:01.234Z,3.10
2023-01-27T13:21:38.110Z,3.20
2023-01-27T13:24:12.580Z,3.20
2023-01-27T13:26:41.028Z,3.20
2023-01-27T13:29:20.162Z,3.30
2023-01-27T13:31:56.865Z,3.50
2023-01-27T13:34:49.350Z,3.50
2023-01-27T13:37:33.168Z,3.50
2023-01-27T13:40:10.562Z,3.50
2023-01-27T13:42:59.566Z,3.50
2023-01-27T13:45:40.774Z,3.50
2023-01-27T13:48:20.988Z,3.50
2023-01-27T13:51:01.847Z,3.40
2023-01-27T13:53:28.584Z,3.30
2023-01-27T13:56:07.254Z,3.20
2023-01-27T13:58:52.979Z,3.20
2023-01-27T14:02:01.100Z,3.20
2023-01-27T14:04:38.724Z,3.20
2023-01-27T14:07:17.797Z,3.30
2023-01-27T14:10:08.147Z,3.30
2023-01-27T14:12:44.926Z,3.20
2023-01-27T14:15:26.616Z,3.10
2023-01-27T14:18:05.354Z,3.20
2023-01-27T14:20:54.061Z,3.20
2023-01-27T14:23:54.402Z,3.20
2023-01-27T14:26:35.388Z,3.20
2023-01-27T14:29:13.789Z,3.20
2023-01-27T14:31:52.471Z,3.20
2023-01-27T14:34:49.226Z,3.20
2023-01-27T14:37:34.896Z,3.20
2023-01-27T14:40:22.839Z,3.20
2023-01-27T14:43:27.464Z,3.20
2023-01-27T14:46:09.011Z,3.20
2023-01-27T14:48:52.154Z,3.20
2023-01-27T14:51:47.181Z,3.20
2023-01-27T14:54:17.258Z,3.10
2023-01-27T14:57:03.475Z,3.10
2023-01-27T14:59:44.719Z,3.10
2023-01-27T15:02:27.807Z,3.10
2023-01-27T15:05:09.585Z,3.10
2023-01-27T15:07:50.551Z,3.10
2023-01-27T15:10:22.113Z,3.10
2023-01-27T15:12:54.926Z,3.10
2023-01-27T15:16:06.312Z,3.10
2023-01-27T15:19:08.175Z,3.10
2023-01-27T15:22:02.330Z,3.10
2023-01-27T15:24:34.961Z,3.10
2023-01-27T15:27:02.407Z,3.10
2023-01-27T15:29:31.158Z,3.10
2023-01-27T15:32:16.526Z,3.00
2023-01-27T15:34:45.550Z,3.00
2023-01-27T15:37:28.204Z,3.00
2023-01-27T15:40:16.692Z,2.90
2023-01-27T15:42:52.043Z,2.90
2023-01-27T15:45:32.581Z,3.00
2023-01-27T15:48:21.704Z,3.00
2023-01-27T15:50:54.636Z,3.00
2023-01-27T15:53:35.234Z,3.00
2023-01-27T15:56:03.608Z,3.00
2023-01-27T15:58:57.088Z,3.00
2023-01-27T16:01:26.303Z,3.00
2023-01-27T16:04:09.709Z,3.00
2023-01-27T16:07:02.098Z,2.90
2023-01-27T16:09:49.072Z,2.90
2023-01-27T16:12:27.022Z,2.80
2023-01-27T16:15:23.438Z,2.80
2023-01-27T16:18:20.976Z,2.70
2023-01-27T16:20:56.651Z,2.70
2023-01-27T16:23:41.432Z,2.70
2023-01-27T16:26:32.984Z,2.70
2023-01-27T16:29:35.399Z,2.70
2023-01-27T16:32:15.432Z,2.70
2023-01-27T16:34:47.808Z,2.70
2023-01-27T16:37:28.631Z,2.70
2023-01-27T16:40:13.572Z,2.80
2023-01-27T16:43:03.742Z,2.80
2023-01-27T16:45:41.443Z,2.70
2023-01-27T16:48:21.725Z,2.70
2023-01-27T16:50:49.283Z,2.70
2023-01-27T16:53:24.867Z,2.70
2023-01-27T16:56:04.673Z,2.70
2023-01-27T16:58:45.592Z,2.70
2023-01-27T17:01:24.259Z,2.70
2023-01-27T17:04:18.052Z,2.70
2023-01-27T17:06:47.190Z,2.70
2023-01-27T17:09:25.773Z,2.70
2023-01-27T17:11:54.153Z,2.70
2023-01-27T17:14:31.232Z,2.70
2023-01-27T17:17:04.072Z,2.70
2023-01-27T17:19:33.522Z,2.60
2023-01-27T17:22:03.521Z,2.70
2023-01-27T17:24:36.104Z,2.60
2023-01-27T17:27:07.562Z,2.70
2023-01-27T17:29:40.864Z,2.70
2023-01-27T17:32:26.599Z,2.70
2023-01-27T17:34:58.319Z,2.70
2023-01-27T17:37:26.300Z,2.70
2023-01-27T17:39:55.824Z,2.70
2023-01-27T17:42:26.143Z,2.70
2023-01-27T17:44:52.851Z,2.80
2023-01-27T17:47:21.600Z,2.80
2023-01-27T17:49:50.564Z,2.80
2023-01-27T17:52:25.071Z,2.70
2023-01-27T17:54:52.356Z,2.70
2023-01-27T17:57:27.218Z,2.80
2023-01-27T18:00:11.099Z,2.70
2023-01-27T18:02:58.152Z,2.70
2023-01-27T18:05:28.872Z,2.70
2023-01-27T18:07:55.693Z,2.70
2023-01-27T18:10:27.745Z,2.70
2023-01-27T18:12:55.055Z,2.70
2023-01-27T18:15:37.294Z,2.60
2023-01-27T18:18:21.627Z,2.60
2023-01-27T18:21:08.788Z,2.60
2023-01-27T18:23:56.836Z,2.70
2023-01-27T18:26:28.542Z,2.60
2023-01-27T18:29:07.019Z,2.60
2023-01-27T18:31:54.795Z,2.70
2023-01-27T18:34:33.108Z,2.70
2023-01-27T18:37:06.279Z,2.70
2023-01-27T18:39:33.041Z,2.70
2023-01-27T18:42:01.096Z,2.70
2023-01-27T18:44:34.492Z,2.70
2023-01-27T18:47:28.861Z,2.70
2023-01-27T18:50:18.112Z,2.70
2023-01-27T18:52:45.692Z,2.70
2023-01-27T18:55:18.477Z,2.70
2023-01-27T18:57:48.531Z,2.60
2023-01-27T19:00:20.821Z,2.60
2023-01-27T19:02:50.594Z,2.70
2023-01-27T19:05:19.418Z,2.70
2023-01-27T19:07:46.712Z,2.70
2023-01-27T19:10:17.570Z,2.70
2023-01-27T19:12:44.372Z,2.70
2023-01-27T19:15:14.416Z,2.70
2023-01-27T19:17:42.673Z,2.80
2023-01-27T19:20:14.920Z,2.80
2023-01-27T19:22:41.990Z,2.80
2023-01-27T19:25:09.485Z,2.80
2023-01-27T19:27:39.529Z,2.90
2023-01-27T19:30:36.247Z,2.90
2023-01-27T19:33:06.192Z,2.90
2023-01-27T19:35:33.190Z,2.90
2023-01-27T19:38:04.371Z,2.90
2023-01-27T19:40:31.597Z,2.90
2023-01-27T19:42:58.669Z,2.90
2023-01-27T19:45:27.965Z,2.90
2023-01-27T19:47:59.509Z,2.90
2023-01-27T19:50:29.064Z,2.90
2023-01-27T19:52:57.663Z,2.90
2023-01-27T19:55:24.982Z,3.00
2023-01-27T19:57:52.075Z,3.00
2023-01-27T20:00:24.851Z,3.00
2023-01-27T20:02:51.877Z,3.10
2023-01-27T20:05:19.001Z,3.10
2023-01-27T20:07:46.900Z,3.10
2023-01-27T20:10:22.819Z,3.10
2023-01-27T20:12:54.828Z,3.10
2023-01-27T20:15:25.388Z,3.10
2023-01-27T20:17:54.750Z,3.10
2023-01-27T20:20:23.611Z,3.10
2023-01-27T20:22:51.463Z,3.10
2023-01-27T20:25:22.631Z,3.10
2023-01-27T20:27:51.802Z,3.10
2023-01-27T20:30:23.827Z,3.10
2023-01-27T20:32:50.774Z,3.20
2023-01-27T20:35:19.056Z,3.10
2023-01-27T20:37:49.985Z,3.10
2023-01-27T20:40:28.274Z,3.00
2023-01-27T20:42:55.547Z,3.00
2023-01-27T20:45:23.010Z,2.90
2023-01-27T20:47:52.114Z,3.00
2023-01-27T20:50:20.569Z,2.90
2023-01-27T20:52:50.189Z,2.90
2023-01-27T20:55:19.331Z,2.80
2023-01-27T20:57:46.862Z,2.90
2023-01-27T21:00:19.001Z,2.90
2023-01-27T21:02:45.966Z,2.90
2023-01-27T21:05:14.241Z,2.90
2023-01-27T21:07:41.592Z,2.80
2023-01-27T21:10:08.932Z,2.80
2023-01-27T21:12:35.695Z,2.80
2023-01-27T21:15:07.995Z,2.80
2023-01-27T21:17:34.923Z,2.80
2023-01-27T21:20:02.063Z,2.80
2023-01-27T21:22:28.854Z,2.80
2023-01-27T21:24:55.542Z,2.80
2023-01-27T21:27:22.194Z,2.80
2023-01-27T21:29:48.922Z,2.90
2023-01-27T21:32:15.728Z,2.80
2023-01-27T21:34:42.457Z,2.80
2023-01-27T21:37:09.150Z,2.80
2023-01-27T21:39:35.883Z,2.80
2023-01-27T21:42:02.604Z,2.80
2023-01-27T21:44:48.590Z,2.80
2023-01-27T21:47:19.419Z,2.70
2023-01-27T21:50:02.698Z,2.80
2023-01-27T21:52:33.112Z,2.80
2023-01-27T21:55:05.075Z,2.80
2023-01-27T21:57:32.145Z,2.80
2023-01-27T21:59:59.004Z,2.80
2023-01-27T22:02:25.924Z,2.80
2023-01-27T22:04:52.830Z,2.80
2023-01-27T22:07:19.953Z,2.80
2023-01-27T22:09:47.057Z,2.70
2023-01-27T22:12:16.400Z,2.80
2023-01-27T22:14:43.781Z,2.80
2023-01-27T22:17:10.722Z,2.70
2023-01-27T22:19:39.121Z,2.70
2023-01-27T22:22:07.961Z,2.70
2023-01-27T22:24:34.725Z,2.70
2023-01-27T22:27:01.575Z,2.70
2023-01-27T22:29:28.293Z,2.70
2023-01-27T22:31:55.295Z,2.70
2023-01-27T22:34:22.393Z,2.70
2023-01-27T22:36:49.772Z,2.70
2023-01-27T22:39:16.984Z,2.70
2023-01-27T22:41:44.779Z,2.70
2023-01-27T22:44:13.220Z,2.70
2023-01-27T22:46:41.589Z,2.70
2023-01-27T22:49:09.189Z,2.70
2023-01-27T22:51:36.048Z,2.70
2023-01-27T22:54:02.780Z,2.70
2023-01-27T22:56:29.497Z,2.70
2023-01-27T22:58:56.264Z,2.70
2023-01-27T23:01:23.122Z,2.70
2023-01-27T23:03:49.906Z,2.70
2023-01-27T23:06:16.710Z,2.70
2023-01-27T23:08:43.463Z,2.70
2023-01-27T23:11:10.545Z,2.70
2023-01-27T23:13:37.393Z,2.70
2023-01-27T23:16:04.605Z,2.70
2023-01-27T23:18:31.545Z,2.60
2023-01-27T23:21:04.417Z,2.70
2023-01-27T23:23:31.173Z,2.70
2023-01-27T23:25:58.404Z,2.70
2023-01-27T23:28:26.067Z,2.60
2023-01-27T23:30:54.027Z,2.70
2023-01-27T23:33:20.846Z,2.60
2023-01-27T23:35:47.856Z,2.60
2023-01-27T23:38:31.491Z,2.70
2023-01-27T23:41:20.324Z,2.60
2023-01-27T23:43:56.619Z,2.60
2023-01-27T23:46:26.662Z,2.50
2023-01-27T23:48:55.315Z,2.50
2023-01-27T23:51:23.052Z,2.50
2023-01-27T23:53:50.228Z,2.50
2023-01-27T23:56:21.283Z,2.50
2023-01-27T23:58:48.494Z,2.50
